Time;durP1;ratioP1;P1;durP2;ratioP2;P2;SDS_P1;SDS_P2;PMS_P1;PMS_P2;Temp;Humidity;BMP_temperature;BMP_pressure;BME280_temperature;BME280_humidity;BME280_pressure;Samples;Min_cycle;Max_cycle;Signal;HPM_P1;HPM_P2
2022/07/20 00:01:50;;;;;;;2.90;1.90;;;;;;;15.73;67.61;98093.56;6212069;28;20232;-84
2022/07/20 00:04:52;;;;;;;3.17;2.00;;;;;;;15.70;67.27;98107.16;6214208;28;20726;-84
2022/07/20 00:07:55;;;;;;;3.60;1.70;;;;;;;15.69;67.65;98110.78;6203346;28;20591;-84
2022/07/20 00:14:17;;;;;;;2.20;2.00;;;;;;;15.65;68.68;98104.09;6199912;28;20740;-84
2022/07/20 00:17:19;;;;;;;2.83;2.20;;;;;;;15.63;68.59;98098.06;6207985;28;20225;-84
2022/07/20 00:20:22;;;;;;;2.80;1.80;;;;;;;15.58;68.40;98100.31;6208657;28;20727;-84
2022/07/20 00:23:24;;;;;;;2.07;1.87;;;;;;;15.57;68.38;98090.69;6209892;28;20228;-84
2022/07/20 00:26:26;;;;;;;2.37;1.90;;;;;;;15.58;68.91;98097.66;6199782;28;20239;-84
2022/07/20 00:29:28;;;;;;;3.57;1.77;;;;;;;15.55;69.79;98096.13;6216047;28;20224;-84
2022/07/20 00:32:35;;;;;;;3.33;1.87;;;;;;;15.52;69.82;98091.06;6192495;28;22057;-84
2022/07/20 00:35:37;;;;;;;1.70;1.60;;;;;;;15.50;69.99;98093.84;6228949;28;20239;-84
2022/07/20 00:38:39;;;;;;;1.83;1.60;;;;;;;15.53;70.17;98095.41;6216456;28;20239;-84
2022/07/20 00:41:42;;;;;;;3.70;1.87;;;;;;;15.52;70.47;98091.06;6216160;28;20324;-84
2022/07/20 00:44:44;;;;;;;2.87;1.70;;;;;;;15.46;70.58;98095.16;6215865;28;20262;-84
2022/07/20 00:47:47;;;;;;;2.50;2.10;;;;;;;15.41;70.76;98086.75;6233338;28;20821;-84
2022/07/20 00:50:50;;;;;;;3.70;1.67;;;;;;;15.46;70.93;98092.50;6199600;28;20231;-84
2022/07/20 00:53:52;;;;;;;2.80;2.10;;;;;;;15.42;70.86;98088.44;6215156;28;20606;-84
2022/07/20 00:56:55;;;;;;;5.00;2.40;;;;;;;15.41;71.21;98093.88;6231049;28;20243;-84
2022/07/20 00:59:57;;;;;;;4.37;2.17;;;;;;;15.38;71.46;98089.69;6190190;28;20604;-84
2022/07/20 01:02:59;;;;;;;2.50;1.97;;;;;;;15.37;72.08;98085.34;6209279;28;20247;-84
2022/07/20 01:06:02;;;;;;;3.73;2.20;;;;;;;15.31;72.06;98080.59;6214987;28;20374;-84
2022/07/20 01:09:04;;;;;;;3.43;1.90;;;;;;;15.28;72.22;98078.22;6204072;28;20226;-84
2022/07/20 01:12:09;;;;;;;2.50;2.20;;;;;;;15.25;72.50;98081.19;6174761;28;20223;-84
2022/07/20 01:15:11;;;;;;;3.67;2.20;;;;;;;15.22;72.54;98081.47;6196242;28;20229;-84
2022/07/20 01:18:13;;;;;;;2.07;1.90;;;;;;;15.24;73.35;98082.16;6198350;28;20590;-84
2022/07/20 01:21:15;;;;;;;4.27;2.00;;;;;;;15.23;73.21;98074.31;6232026;28;20266;-84
2022/07/20 01:24:17;;;;;;;3.83;1.97;;;;;;;15.23;73.02;98074.31;6216271;28;20269;-84
2022/07/20 01:27:20;;;;;;;4.57;2.27;;;;;;;15.22;73.39;98076.16;6214649;28;20247;-84
2022/07/20 01:30:22;;;;;;;2.03;1.87;;;;;;;15.26;73.56;98071.41;6224215;28;20594;-84
2022/07/20 01:33:24;;;;;;;2.30;2.10;;;;;;;15.23;73.83;98072.50;6201122;28;20221;-84
2022/07/20 01:36:26;;;;;;;2.10;1.90;;;;;;;15.21;73.93;98068.31;6206440;28;20224;-84
2022/07/20 01:39:28;;;;;;;2.33;2.07;;;;;;;15.17;74.10;98066.94;6197662;28;20227;-84
2022/07/20 01:42:30;;;;;;;2.57;2.10;;;;;;;15.16;74.42;98071.41;6214635;28;20304;-84
2022/07/20 01:45:33;;;;;;;2.23;2.03;;;;;;;15.15;74.50;98059.09;6229247;28;20547;-84
2022/07/20 01:48:35;;;;;;;3.47;1.83;;;;;;;15.17;74.70;98075.75;6229881;28;20220;-84
2022/07/20 01:51:37;;;;;;;2.70;2.10;;;;;;;15.11;74.94;98069.16;6198136;28;20231;-84
2022/07/20 01:54:39;;;;;;;5.03;2.07;;;;;;;15.09;74.96;98067.63;6229930;28;20246;-84
2022/07/20 01:57:41;;;;;;;2.93;1.90;;;;;;;15.08;75.19;98063.28;6205233;28;20227;-83
2022/07/20 02:00:43;;;;;;;3.67;2.40;;;;;;;15.09;74.95;98062.31;6202231;28;20278;-84
2022/07/20 02:03:46;;;;;;;2.30;2.10;;;;;;;15.12;75.13;98068.19;6213971;28;20726;-84
2022/07/20 02:06:48;;;;;;;3.70;2.20;;;;;;;15.17;75.38;98065.13;6229482;28;20223;-83
2022/07/20 02:09:51;;;;;;;2.40;2.20;;;;;;;15.16;75.09;98060.78;6197305;28;20236;-84
2022/07/20 02:12:53;;;;;;;4.87;2.37;;;;;;;15.17;75.45;98072.25;6213641;28;20754;-84
2022/07/20 02:19:16;;;;;;;4.00;2.13;;;;;;;15.16;75.67;98065.25;6190669;28;20255;-84
2022/07/20 02:22:18;;;;;;;2.30;2.10;;;;;;;15.11;75.42;98071.81;6226155;28;20223;-84
2022/07/20 02:25:30;;;;;;;2.63;2.10;;;;;;;15.07;75.98;98064.28;6214114;28;20232;-84
2022/07/20 02:28:39;;;;;;;3.00;2.10;;;;;;;15.05;76.20;98071.56;6197982;28;20322;-84
2022/07/20 02:31:41;;;;;;;2.17;1.97;;;;;;;15.05;76.15;98066.25;6222037;28;20227;-84
2022/07/20 02:34:43;;;;;;;4.90;2.00;;;;;;;15.03;76.12;98062.88;6197323;28;20224;-85
2022/07/20 02:37:45;;;;;;;2.87;2.53;;;;;;;15.01;76.03;98056.84;6213058;28;20325;-84
2022/07/20 02:40:48;;;;;;;3.57;2.10;;;;;;;15.01;76.42;98054.19;6231747;28;20238;-84
2022/07/20 02:43:50;;;;;;;2.57;2.37;;;;;;;14.97;76.68;98064.25;6213142;28;20726;-84
2022/07/20 02:46:58;;;;;;;2.80;1.93;;;;;;;14.91;76.73;98062.19;6173654;28;20232;-84
2022/07/20 02:50:01;;;;;;;3.03;2.10;;;;;;;14.91;76.82;98056.88;6201884;28;20229;-84
2022/07/20 02:53:07;;;;;;;3.97;2.27;;;;;;;14.91;76.79;98056.88;6205406;28;20720;-84
2022/07/20 02:56:09;;;;;;;3.67;2.20;;;;;;;14.91;77.01;98059.53;6221990;28;20228;-84
2022/07/20 02:59:11;;;;;;;2.57;2.30;;;;;;;14.89;77.18;98056.16;6213036;28;20231;-84
2022/07/20 03:02:13;;;;;;;4.77;2.00;;;;;;;14.85;77.35;98062.75;6229248;28;20231;-84
2022/07/20 03:05:15;;;;;;;3.67;2.50;;;;;;;14.88;77.57;98058.97;6212331;28;20322;-84
2022/07/20 03:08:17;;;;;;;2.40;2.20;;;;;;;14.87;77.54;98063.47;6196981;28;20237;-84
2022/07/20 03:11:20;;;;;;;4.10;2.30;;;;;;;14.84;77.44;98055.75;6214244;28;20759;-84
2022/07/20 03:14:22;;;;;;;4.30;2.47;;;;;;;14.84;77.75;98066.41;6204432;28;20653;-84
2022/07/20 03:17:24;;;;;;;2.70;2.50;;;;;;;14.80;77.57;98061.47;6200385;28;20239;-83
2022/07/20 03:20:29;;;;;;;4.17;2.50;;;;;;;14.78;77.58;98058.97;6220595;28;20232;-84
2022/07/20 03:23:31;;;;;;;2.60;2.37;;;;;;;14.78;77.44;98062.47;6196788;28;20227;-85
2022/07/20 03:26:33;;;;;;;2.83;2.43;;;;;;;14.79;77.67;98065.97;6203993;28;20247;-85
2022/07/20 03:29:36;;;;;;;2.80;2.30;;;;;;;14.74;77.96;98068.22;6210110;28;20219;-85
2022/07/20 03:32:38;;;;;;;3.03;2.23;;;;;;;14.72;78.39;98065.69;6242089;28;20307;-85
2022/07/20 03:35:40;;;;;;;5.23;2.77;;;;;;;14.71;78.57;98071.13;6188914;28;20228;-84
2022/07/20 03:38:42;;;;;;;3.43;2.33;;;;;;;14.75;78.12;98078.69;6207091;28;20231;-85
2022/07/20 03:41:44;;;;;;;3.73;3.17;;;;;;;14.77;77.99;98073.25;6193030;28;20236;-85
2022/07/20 03:44:47;;;;;;;4.97;2.70;;;;;;;14.80;77.91;98070.28;6193367;28;20336;-84
2022/07/20 03:47:49;;;;;;;2.37;2.13;;;;;;;14.85;78.30;98070.72;6207605;28;20618;-84
2022/07/20 03:50:52;;;;;;;3.10;2.50;;;;;;;14.88;77.87;98082.88;6197726;28;20819;-84
2022/07/20 03:53:54;;;;;;;2.90;2.43;;;;;;;14.87;78.61;98078.56;6182300;28;20236;-85
2022/07/20 03:56:56;;;;;;;2.87;2.67;;;;;;;14.87;78.45;98084.72;6184685;28;20565;-84
2022/07/20 03:59:58;;;;;;;2.53;2.27;;;;;;;14.92;78.48;98084.28;6204215;28;20601;-85
2022/07/20 04:03:01;;;;;;;2.87;2.50;;;;;;;14.96;78.10;98078.56;6187646;28;20331;-84
2022/07/20 04:06:03;;;;;;;4.23;2.90;;;;;;;15.01;78.25;98075.47;6196481;28;20217;-84
2022/07/20 04:09:05;;;;;;;4.93;2.20;;;;;;;15.03;77.91;98090.31;6215854;28;20585;-85
2022/07/20 04:12:13;;;;;;;3.13;2.73;;;;;;;15.10;77.91;98087.91;6180393;28;20794;-84
2022/07/20 04:15:16;;;;;;;12.90;2.63;;;;;;;15.14;77.74;98092.81;6185380;28;20217;-84
2022/07/20 04:18:18;;;;;;;2.60;2.40;;;;;;;15.20;77.83;98098.53;6168440;28;20220;-84
2022/07/20 04:21:20;;;;;;;2.43;2.23;;;;;;;15.25;77.65;98097.16;6191637;28;20213;-85
2022/07/20 04:24:23;;;;;;;3.67;2.57;;;;;;;15.29;77.69;98093.19;6225046;28;20241;-84
2022/07/20 04:27:25;;;;;;;3.23;2.73;;;;;;;15.37;77.59;98088.00;6189042;28;20220;-85
2022/07/20 04:30:28;;;;;;;2.30;2.10;;;;;;;15.39;77.72;98091.38;6217130;28;20227;-86
2022/07/20 04:33:30;;;;;;;2.97;2.47;;;;;;;15.42;77.58;98091.09;6197749;28;20728;-84
2022/07/20 04:36:33;;;;;;;3.80;2.30;;;;;;;15.52;77.28;98085.75;6197899;28;20231;-85
2022/07/20 04:39:35;;;;;;;2.67;2.30;;;;;;;15.51;77.71;98090.22;6205874;28;20720;-84
2022/07/20 04:42:38;;;;;;;3.60;2.37;;;;;;;15.53;77.37;98098.06;6199328;28;20601;-85
2022/07/20 04:45:40;;;;;;;2.80;2.33;;;;;;;15.58;77.27;98103.81;6192499;28;20609;-85
2022/07/20 04:48:42;;;;;;;2.97;2.27;;;;;;;15.61;77.36;98100.03;6222962;28;20227;-85
2022/07/20 04:51:44;;;;;;;2.50;2.30;;;;;;;15.62;77.30;98099.88;6191303;28;20250;-84
2022/07/20 04:54:46;;;;;;;4.30;2.47;;;;;;;15.71;77.04;98111.47;6225342;28;20223;-85
2022/07/20 04:57:48;;;;;;;5.30;2.67;;;;;;;15.77;77.08;98102.94;6209189;28;20704;-86
2022/07/20 05:00:50;;;;;;;6.27;2.60;;;;;;;15.76;76.89;98101.25;6207107;28;20236;-86
2022/07/20 05:03:53;;;;;;;3.70;2.40;;;;;;;15.75;77.36;98102.25;6190078;28;20255;-85
2022/07/20 05:06:55;;;;;;;5.50;2.80;;;;;;;15.73;77.52;98101.53;6207304;28;20232;-87
2022/07/20 05:09:57;;;;;;;8.27;2.73;;;;;;;15.77;77.62;98109.06;6206970;28;20719;-84
2022/07/20 05:12:59;;;;;;;6.20;2.80;;;;;;;15.84;77.42;98099.53;6191356;28;20225;-84
2022/07/20 05:16:01;;;;;;;4.63;2.43;;;;;;;15.91;77.40;98109.59;6190821;28;20591;-85
2022/07/20 05:19:04;;;;;;;4.63;2.60;;;;;;;16.01;76.98;98107.72;6208155;28;20268;-85
2022/07/20 05:22:15;;;;;;;3.60;2.90;;;;;;;16.08;76.91;98106.16;6207484;28;20225;-85
2022/07/20 05:25:33;;;;;;;4.13;3.10;;;;;;;16.17;76.43;98102.63;6208068;28;20307;-84
2022/07/20 05:28:35;;;;;;;5.43;3.93;;;;;;;16.27;76.69;98103.38;6214511;28;20734;-85
2022/07/20 05:31:37;;;;;;;5.10;4.27;;;;;;;16.35;76.11;98105.34;6214484;28;20568;-85
2022/07/20 05:34:39;;;;;;;5.10;4.13;;;;;;;16.39;75.79;98109.34;6198151;28;20318;-85
2022/07/20 05:37:42;;;;;;;4.90;4.40;;;;;;;16.48;75.62;98111.97;6198099;28;20711;-85
2022/07/20 05:40:45;;;;;;;5.40;4.90;;;;;;;16.50;75.73;98114.50;6214338;28;20609;-85
2022/07/20 05:43:47;;;;;;;4.47;3.97;;;;;;;16.54;76.15;98110.53;6214732;28;20223;-85
2022/07/20 05:46:49;;;;;;;5.33;3.40;;;;;;;16.60;76.56;98105.44;6197205;28;20228;-85
2022/07/20 05:49:52;;;;;;;5.50;3.20;;;;;;;16.67;76.19;98108.38;6229856;28;20243;-86
2022/07/20 05:52:54;;;;;;;3.60;3.30;;;;;;;16.72;76.15;98098.09;6198191;28;20234;-85
2022/07/20 05:55:56;;;;;;;4.80;4.07;;;;;;;16.73;76.41;98102.44;6213989;28;20602;-86
2022/07/20 05:58:58;;;;;;;3.50;3.20;;;;;;;16.78;76.69;98105.47;6206003;28;20228;-86
2022/07/20 06:02:00;;;;;;;2.93;2.60;;;;;;;16.84;76.50;98104.06;6218037;28;20237;-86
2022/07/20 06:05:02;;;;;;;3.23;2.53;;;;;;;16.96;76.07;98106.34;6214787;28;20230;-86
2022/07/20 06:08:05;;;;;;;3.80;2.87;;;;;;;17.08;75.72;98104.25;6213855;28;20251;-86
2022/07/20 06:11:08;;;;;;;9.87;6.20;;;;;;;17.18;75.42;98107.69;6213777;28;20710;-86
2022/07/20 06:14:10;;;;;;;10.93;6.53;;;;;;;17.30;75.19;98097.63;6230053;28;20251;-86
2022/07/20 06:17:12;;;;;;;7.47;6.10;;;;;;;17.45;74.62;98101.41;6197141;28;20231;-86
2022/07/20 06:20:15;;;;;;;13.60;7.23;;;;;;;17.58;74.18;98100.97;6214151;28;20232;-86
2022/07/20 06:23:17;;;;;;;13.13;10.67;;;;;;;17.68;73.93;98101.75;6189668;28;20228;-85
2022/07/20 06:26:22;;;;;;;12.53;10.93;;;;;;;17.84;73.52;98103.69;6219107;28;20246;-86
2022/07/20 06:29:25;;;;;;;14.87;11.03;;;;;;;18.00;72.75;98096.59;6199476;28;20746;-86
2022/07/20 06:32:27;;;;;;;9.97;7.80;;;;;;;18.18;72.06;98104.50;6248181;28;20761;-86
2022/07/20 06:35:29;;;;;;;5.93;3.50;;;;;;;18.32;72.06;98106.59;6214144;28;20306;-86
2022/07/20 06:38:33;;;;;;;4.20;3.27;;;;;;;18.56;70.99;98102.34;6213034;28;20657;-87
2022/07/20 06:41:35;;;;;;;3.77;2.73;;;;;;;18.82;70.49;98104.91;6204587;28;20232;-85
2022/07/20 06:44:44;;;;;;;3.37;2.63;;;;;;;19.07;69.38;98098.59;6204849;28;20712;-87
2022/07/20 06:47:47;;;;;;;4.50;2.43;;;;;;;19.40;68.20;98094.91;6205576;28;20232;-91
2022/07/20 06:50:49;;;;;;;2.33;2.10;;;;;;;19.66;67.79;98097.44;6189296;28;20235;-91
2022/07/20 06:53:52;;;;;;;9.03;2.40;;;;;;;20.09;66.26;98097.97;6189813;28;20239;-88
2022/07/20 06:56:55;;;;;;;2.40;2.17;;;;;;;20.37;65.07;98091.19;6226666;28;20238;-88
2022/07/20 06:59:57;;;;;;;2.33;2.13;;;;;;;20.76;63.94;98093.84;6212688;28;20231;-88
2022/07/20 07:02:59;;;;;;;3.80;1.90;;;;;;;21.19;62.84;98086.19;6212289;28;20226;-89
2022/07/20 07:06:01;;;;;;;2.43;1.90;;;;;;;21.48;61.94;98085.44;6195538;28;20235;-88
2022/07/20 07:09:04;;;;;;;3.23;1.90;;;;;;;21.83;60.10;98079.38;6213061;28;20211;-88
2022/07/20 07:12:06;;;;;;;2.77;1.93;;;;;;;22.16;59.63;98071.78;6187866;28;20250;-89
2022/07/20 07:15:09;;;;;;;6.23;2.00;;;;;;;22.53;58.57;98078.06;6204368;28;20220;-88
2022/07/20 07:18:12;;;;;;;3.67;2.30;;;;;;;22.83;57.72;98081.53;6217916;28;20350;-87
2022/07/20 07:21:14;;;;;;;4.73;1.80;;;;;;;23.12;56.81;98081.41;6190439;28;20208;-88
2022/07/20 07:24:16;;;;;;;7.20;1.80;;;;;;;23.53;54.64;98082.44;6195340;28;20211;-87
2022/07/20 07:27:18;;;;;;;3.40;1.80;;;;;;;24.01;51.31;98084.41;6196392;28;20219;-88
2022/07/20 07:30:21;;;;;;;2.23;1.80;;;;;;;24.72;48.01;98075.03;6197525;28;20204;-88
2022/07/20 07:33:25;;;;;;;1.73;1.60;;;;;;;25.20;46.50;98069.53;6229259;28;20330;-88
2022/07/20 07:36:27;;;;;;;1.87;1.67;;;;;;;25.71;45.64;98075.19;6214124;28;20223;-88
2022/07/20 07:39:29;;;;;;;1.87;1.70;;;;;;;26.05;45.43;98076.81;6196127;28;20687;-89
2022/07/20 07:42:31;;;;;;;3.13;2.10;;;;;;;26.24;45.58;98081.34;6205062;28;20317;-88
2022/07/20 07:45:33;;;;;;;2.85;1.73;;;;;;;26.64;43.12;98076.63;6187639;28;20244;-88
2022/07/20 07:48:35;;;;;;;6.70;2.17;;;;;;;27.18;40.30;98076.13;6204488;28;20362;-89
2022/07/20 07:51:38;;;;;;;3.35;2.00;;;;;;;27.54;37.87;98070.03;6210414;28;20232;-88
2022/07/20 07:54:40;;;;;;;2.60;1.80;;;;;;;27.98;37.40;98076.28;6195217;28;20248;-89
2022/07/20 07:57:42;;;;;;;1.60;1.50;;;;;;;28.28;35.69;98071.81;6198181;28;20235;-89
2022/07/20 08:00:44;;;;;;;2.38;2.17;;;;;;;28.61;34.57;98073.31;6213280;28;20232;-89
2022/07/20 08:03:47;;;;;;;3.55;1.65;;;;;;;28.87;35.91;98070.25;6215412;28;20239;-89
2022/07/20 08:06:50;;;;;;;2.15;1.50;;;;;;;28.99;37.04;98075.75;6217673;28;20276;-88
2022/07/20 08:09:52;;;;;;;3.13;2.47;;;;;;;29.13;35.90;98069.06;6235756;28;20743;-88
2022/07/20 08:12:55;;;;;;;3.40;2.00;;;;;;;29.44;36.68;98067.16;6210574;28;20607;-88
2022/07/20 08:15:57;;;;;;;6.30;1.80;;;;;;;29.61;36.85;98068.13;6218461;28;20231;-89
2022/07/20 08:18:59;;;;;;;3.05;1.70;;;;;;;29.79;34.41;98073.44;6219691;28;20238;-89
2022/07/20 08:22:01;;;;;;;2.30;1.83;;;;;;;29.84;33.84;98068.16;6204545;28;20235;-89
2022/07/20 08:25:04;;;;;;;3.35;1.80;;;;;;;30.13;34.29;98069.09;6202321;28;20236;-89
2022/07/20 08:28:22;;;;;;;2.03;1.70;;;;;;;30.65;34.43;98067.22;6195186;28;20267;-89
2022/07/20 08:31:24;;;;;;;2.25;1.90;;;;;;;30.89;31.08;98072.59;6231622;28;20234;-89
2022/07/20 08:34:27;;;;;;;4.20;2.05;;;;;;;30.61;29.75;98063.34;6217448;28;20239;-89
2022/07/20 08:37:29;;;;;;;3.10;2.20;;;;;;;31.04;31.58;98072.88;6204713;28;20239;-89
2022/07/20 08:40:31;;;;;;;4.18;2.00;;;;;;;31.27;30.21;98066.50;6216387;28;20239;-89
2022/07/20 08:43:34;;;;;;;3.63;2.10;;;;;;;31.45;30.72;98068.97;6217384;28;20247;-89
2022/07/20 08:46:36;;;;;;;3.72;1.95;;;;;;;31.81;28.62;98071.25;6219033;28;20239;-90
2022/07/20 08:49:45;;;;;;;4.30;1.60;;;;;;;31.64;27.40;98069.63;6204476;28;20242;-88
2022/07/20 08:52:47;;;;;;;2.97;1.70;;;;;;;31.97;28.09;98061.38;6221528;28;20236;-88
2022/07/20 08:55:51;;;;;;;3.22;1.55;;;;;;;32.33;29.42;98064.66;6221793;28;20267;-88
2022/07/20 08:58:57;;;;;;;3.38;1.70;;;;;;;32.73;29.21;98059.72;6190601;28;20232;-88
2022/07/20 09:02:09;;;;;;;3.00;1.85;;;;;;;32.63;27.22;98062.31;6191254;28;20232;-89
2022/07/20 09:05:21;;;;;;;5.13;1.77;;;;;;;33.02;28.34;98057.56;6192476;28;20272;-88
2022/07/20 09:08:30;;;;;;;2.30;1.63;;;;;;;33.46;28.38;98060.19;6205977;28;20303;-88
2022/07/20 09:11:37;;;;;;;2.00;1.58;;;;;;;34.02;28.87;98054.06;6199931;28;20255;-88
2022/07/20 09:14:48;;;;;;;6.07;1.80;;;;;;;34.02;27.07;98051.31;6215408;28;20228;-88
2022/07/20 09:18:10;;;;;;;3.15;1.73;;;;;;;33.95;26.36;98047.97;6216758;28;20231;-88
2022/07/20 09:21:29;;;;;;;2.88;1.65;;;;;;;33.97;23.99;98042.25;6208406;28;20223;-89
2022/07/20 09:24:34;;;;;;;2.72;1.80;;;;;;;34.00;25.01;98041.72;6189965;28;20347;-89
2022/07/20 09:27:40;;;;;;;3.65;1.50;;;;;;;34.51;24.92;98047.47;6206940;28;20371;-90
2022/07/20 09:30:52;;;;;;;7.13;1.52;;;;;;;34.12;22.81;98042.34;6175455;28;20243;-90
2022/07/20 09:33:59;;;;;;;5.78;1.50;;;;;;;34.40;22.61;98033.72;6184715;28;20316;-89
2022/07/20 09:37:16;;;;;;;4.32;1.55;;;;;;;34.74;21.60;98025.06;6164248;28;20324;-87
2022/07/20 09:40:22;;;;;;;2.63;1.52;;;;;;;34.62;21.44;98019.00;6202455;28;20244;-87
2022/07/20 09:43:30;;;;;;;5.18;1.80;;;;;;;34.34;21.84;98023.81;6167167;28;20236;-89
2022/07/20 09:46:38;;;;;;;1.95;1.13;;;;;;;34.64;21.43;98023.13;6195302;28;20232;-89
2022/07/20 09:49:44;;;;;;;3.67;1.42;;;;;;;35.34;21.78;98018.09;6178753;28;20251;-89
2022/07/20 09:52:48;;;;;;;3.17;1.48;;;;;;;35.14;21.74;98027.09;6205655;28;20254;-88
2022/07/20 09:55:54;;;;;;;4.18;1.67;;;;;;;34.76;20.61;98017.41;6205842;28;20232;-88
2022/07/20 09:58:59;;;;;;;4.25;1.50;;;;;;;34.55;21.13;98016.50;6206460;28;20692;-89
2022/07/20 10:02:06;;;;;;;4.85;1.67;;;;;;;34.73;21.15;98010.56;6206480;28;20220;-89
2022/07/20 10:05:12;;;;;;;3.92;1.65;;;;;;;34.86;21.73;98017.44;6198029;28;20233;-88
2022/07/20 10:08:16;;;;;;;2.63;1.50;;;;;;;35.64;21.63;98026.28;6219674;28;20232;-88
2022/07/20 10:11:20;;;;;;;1.50;1.40;;;;;;;36.42;22.18;98012.16;6198189;28;20221;-89
2022/07/20 10:14:26;;;;;;;3.05;1.35;;;;;;;37.21;21.55;98008.44;6189189;28;20283;-88
2022/07/20 10:17:33;;;;;;;1.88;1.45;;;;;;;37.35;21.90;98006.66;6196105;28;20221;-89
2022/07/20 10:20:37;;;;;;;3.05;1.60;;;;;;;36.77;20.21;98006.47;6192712;28;20880;-89
2022/07/20 10:23:42;;;;;;;4.93;1.60;;;;;;;36.06;20.88;98004.00;6201980;28;20236;-89
2022/07/20 10:26:48;;;;;;;2.28;1.30;;;;;;;36.01;20.67;98003.19;6202650;28;20365;-89
2022/07/20 10:29:55;;;;;;;1.77;1.50;;;;;;;35.64;21.45;98001.56;6205117;28;20225;-89
2022/07/20 10:32:59;;;;;;;3.67;1.40;;;;;;;36.16;20.37;97998.47;6189862;28;20259;-88
2022/07/20 10:39:46;;;;;;;1.45;1.30;;;;;;;36.98;19.40;98007.19;6203836;28;20220;-90
2022/07/20 10:43:11;;;;;;;4.10;1.40;;;;;;;37.19;18.50;97999.63;6182087;28;20597;-89
2022/07/20 10:46:37;;;;;;;4.00;1.38;;;;;;;37.73;18.44;97999.47;6189296;28;20243;-89
2022/07/20 10:50:03;;;;;;;3.30;1.48;;;;;;;37.51;18.70;97980.63;6188751;28;20235;-90
2022/07/20 10:53:11;;;;;;;2.20;1.65;;;;;;;37.44;18.71;97982.88;6181398;28;20253;-89
2022/07/20 10:56:13;;;;;;;4.28;1.55;;;;;;;37.46;17.70;97985.34;6217580;28;20232;-89
2022/07/20 10:59:17;;;;;;;3.28;1.30;;;;;;;37.20;16.87;97980.06;6183388;28;20233;-90
2022/07/20 11:02:20;;;;;;;1.92;1.48;;;;;;;37.62;16.64;97982.22;6201108;28;20602;-88
2022/07/20 11:05:23;;;;;;;1.20;1.10;;;;;;;37.24;16.35;97975.63;6192213;28;20731;-89
2022/07/20 11:08:29;;;;;;;3.13;1.45;;;;;;;36.64;17.03;97976.03;6188871;28;20221;-89
2022/07/20 11:11:37;;;;;;;2.80;1.55;;;;;;;37.11;16.76;97969.94;6203727;28;20327;-89
2022/07/20 11:14:54;;;;;;;1.83;1.20;;;;;;;37.07;16.41;97961.41;6188076;28;20225;-89
2022/07/20 11:17:58;;;;;;;1.40;1.30;;;;;;;37.21;16.43;97961.63;6202782;28;20665;-88
2022/07/20 11:21:09;;;;;;;2.53;1.10;;;;;;;37.45;17.22;97948.72;6179892;28;20589;-88
2022/07/20 11:24:26;;;;;;;1.17;1.05;;;;;;;38.20;16.60;97948.22;6213716;28;20213;-88
2022/07/20 12:27:05;;;;;;;3.05;1.73;;;;;;;38.49;14.91;97920.53;5203021;28;20220;-88
2022/07/20 12:30:31;;;;;;;2.75;1.80;;;;;;;38.19;15.27;97910.75;6199847;28;20671;-89
2022/07/20 12:33:33;;;;;;;3.35;1.70;;;;;;;38.59;14.55;97907.44;6215859;28;20224;-89
2022/07/20 12:36:47;;;;;;;2.35;1.50;;;;;;;38.82;16.45;97900.19;6200600;28;20228;-89
2022/07/20 12:39:56;;;;;;;3.03;1.58;;;;;;;39.87;15.14;97901.38;6201661;28;20220;-89
2022/07/20 12:42:58;;;;;;;4.72;1.52;;;;;;;40.18;14.41;97901.56;6210878;28;20290;-88
2022/07/20 12:46:07;;;;;;;3.58;1.60;;;;;;;39.92;14.13;97904.06;6200633;28;20241;-90
2022/07/20 12:49:21;;;;;;;2.05;1.63;;;;;;;39.56;14.65;97897.56;6222616;28;20322;-89
2022/07/20 12:52:24;;;;;;;2.45;1.50;;;;;;;39.08;14.28;97887.63;6215486;28;20244;-89
2022/07/20 12:55:26;;;;;;;2.90;1.50;;;;;;;39.29;15.44;97906.59;6215448;28;20321;-89
2022/07/20 12:58:29;;;;;;;1.55;1.30;;;;;;;39.88;13.99;97891.97;6191871;28;20231;-89
2022/07/20 13:01:31;;;;;;;3.90;1.60;;;;;;;40.45;14.12;97892.41;6186450;28;20575;-89
2022/07/20 13:04:33;;;;;;;3.10;1.75;;;;;;;40.62;14.62;97878.75;6214738;28;20240;-88
2022/07/20 13:07:36;;;;;;;3.85;1.60;;;;;;;40.03;14.16;97872.28;6214753;28;20642;-89
2022/07/20 13:10:38;;;;;;;3.63;1.50;;;;;;;39.55;14.47;97882.91;6199261;28;20231;-89
2022/07/20 13:13:41;;;;;;;4.55;1.65;;;;;;;39.40;14.16;97874.94;6206614;28;20240;-89
2022/07/20 13:16:48;;;;;;;2.10;1.60;;;;;;;40.16;14.42;97878.94;6199390;28;20244;-89
2022/07/20 13:19:50;;;;;;;3.08;1.92;;;;;;;40.25;13.66;97870.72;6214674;28;20231;-88
2022/07/20 13:22:53;;;;;;;2.97;1.60;;;;;;;39.62;14.38;97877.81;6183500;28;20224;-89
2022/07/20 13:25:55;;;;;;;3.83;1.70;;;;;;;39.65;14.16;97870.84;6174243;28;20231;-88
2022/07/20 13:29:03;;;;;;;3.15;1.58;;;;;;;39.70;14.25;97859.69;6199457;28;20220;-89
2022/07/20 13:32:06;;;;;;;3.78;1.60;;;;;;;39.97;14.67;97858.88;6198729;28;20236;-88
2022/07/20 13:35:08;;;;;;;2.83;1.45;;;;;;;39.87;14.72;97859.91;6196220;28;20624;-88
2022/07/20 13:38:14;;;;;;;3.15;1.40;;;;;;;39.50;14.20;97868.41;6190506;28;20232;-88
2022/07/20 13:41:17;;;;;;;3.15;1.60;;;;;;;39.38;14.16;97857.81;6174896;28;20435;-88
2022/07/20 13:44:19;;;;;;;1.63;1.27;;;;;;;39.87;14.26;97859.91;6181606;28;20610;-89
2022/07/20 13:47:22;;;;;;;1.90;1.60;;;;;;;39.45;14.34;97858.25;6160317;28;20320;-89
2022/07/20 13:50:24;;;;;;;2.20;1.58;;;;;;;39.10;14.53;97851.44;6189809;28;20295;-89
2022/07/20 13:53:46;;;;;;;3.25;1.58;;;;;;;40.21;14.83;97856.69;6167886;28;20236;-90
2022/07/20 13:56:48;;;;;;;2.47;1.42;;;;;;;40.17;13.56;97839.06;6172906;28;20220;-89
2022/07/20 13:59:51;;;;;;;4.07;1.52;;;;;;;39.57;13.81;97846.69;6190486;28;20220;-89
2022/07/20 14:02:54;;;;;;;3.95;1.58;;;;;;;39.99;14.22;97840.88;6174478;28;20322;-89
2022/07/20 14:05:56;;;;;;;3.75;1.60;;;;;;;40.84;13.58;97837.22;6189674;28;20228;-89
2022/07/20 14:08:58;;;;;;;2.15;1.33;;;;;;;42.35;12.55;97831.34;6190413;28;20592;-89
2022/07/20 14:12:01;;;;;;;2.15;1.48;;;;;;;43.63;11.67;97839.78;6186904;28;20304;-89
2022/07/20 14:15:06;;;;;;;5.03;1.50;;;;;;;45.17;11.35;97837.03;6221206;28;20567;-89
2022/07/20 14:18:09;;;;;;;3.65;1.50;;;;;;;46.59;10.27;97841.66;6184290;28;20272;-89
2022/07/20 14:21:12;;;;;;;2.67;1.38;;;;;;;46.37;9.97;97833.00;6214661;28;20200;-89
2022/07/20 14:24:19;;;;;;;3.95;1.60;;;;;;;45.91;9.90;97838.75;6198190;28;20774;-89
2022/07/20 14:27:21;;;;;;;2.92;1.35;;;;;;;44.66;11.03;97831.91;6189545;28;20240;-89
2022/07/20 14:30:23;;;;;;;2.65;1.40;;;;;;;44.90;10.60;97829.28;6190107;28;20231;-89
2022/07/20 14:33:25;;;;;;;4.28;1.30;;;;;;;45.83;10.66;97824.88;6164702;28;20575;-88
2022/07/20 14:36:28;;;;;;;1.83;1.40;;;;;;;47.20;9.95;97826.59;6203663;28;20236;-89
2022/07/20 14:39:30;;;;;;;1.50;1.40;;;;;;;47.54;9.32;97825.09;6188106;28;20597;-89
2022/07/20 14:42:32;;;;;;;1.90;1.20;;;;;;;47.30;9.54;97826.06;6179643;28;20233;-89
2022/07/20 14:45:34;;;;;;;2.38;2.00;;;;;;;45.77;9.94;97821.53;6192005;28;20244;-89
2022/07/20 14:48:39;;;;;;;2.92;1.55;;;;;;;46.53;9.92;97819.88;6205255;28;20749;-88
2022/07/20 14:51:41;;;;;;;2.35;1.20;;;;;;;46.94;9.23;97813.91;6172541;28;20247;-88
2022/07/20 14:54:43;;;;;;;3.92;1.55;;;;;;;48.36;8.28;97817.47;6172506;28;20236;-89
2022/07/20 14:57:47;;;;;;;5.22;1.80;;;;;;;48.55;9.02;97813.06;6189287;28;20236;-89
2022/07/20 15:00:49;;;;;;;4.20;1.40;;;;;;;46.93;9.24;97808.66;6207021;28;20244;-88
2022/07/20 15:03:51;;;;;;;3.42;1.42;;;;;;;46.86;9.71;97805.69;6189732;28;20722;-88
2022/07/20 15:07:00;;;;;;;2.47;1.27;;;;;;;47.15;9.46;97796.91;6193718;28;20295;-88
2022/07/20 15:10:04;;;;;;;2.13;1.60;;;;;;;47.30;10.34;97804.50;6177610;28;20246;-89
2022/07/20 15:13:06;;;;;;;2.92;1.40;;;;;;;48.08;9.40;97798.06;6188354;28;20740;-88
2022/07/20 15:16:08;;;;;;;3.15;1.70;;;;;;;47.04;9.00;97801.41;6176449;28;20251;-89
2022/07/20 15:19:10;;;;;;;2.53;1.45;;;;;;;46.42;10.82;97797.22;6194804;28;20225;-88
2022/07/20 15:22:21;;;;;;;2.55;1.60;;;;;;;45.64;9.64;97792.00;6211130;28;20228;-88
2022/07/20 15:25:27;;;;;;;4.53;1.58;;;;;;;45.18;10.54;97798.81;6208553;28;20239;-89
2022/07/20 15:28:29;;;;;;;2.08;1.20;;;;;;;46.47;9.82;97799.78;6211689;28;20240;-88
2022/07/20 15:31:32;;;;;;;1.75;1.50;;;;;;;47.65;9.98;97799.00;6172024;28;20236;-89
2022/07/20 15:34:54;;;;;;;3.60;1.65;;;;;;;47.84;8.87;97792.66;6175257;28;20237;-88
2022/07/20 15:37:56;;;;;;;2.13;1.25;;;;;;;48.24;8.05;97786.78;6178636;28;20545;-89